sensor_id;sensor_type;location;lat;lon;timestamp;P1;durP1;ratioP1;P2;durP2;ratioP2
4563;SDS011;2294;51.818;8.484;2024-01-15T00:00:26;12.37;;;6.30;;
4563;SDS011;2294;51.818;8.484;2024-01-15T00:02:53;28.47;;;11.07;;
4563;SDS011;2294;51.818;8.484;2024-01-15T00:05:20;20.93;;;10.63;;
4563;SDS011;2294;51.818;8.484;2024-01-15T00:07:47;29.00;;;11.13;;
4563;SDS011;2294;51.818;8.484;2024-01-15T00:10:15;20.73;;;10.87;;
4563;SDS011;2294;51.818;8.484;2024-01-15T00:12:42;18.90;;;10.20;;
4563;SDS011;2294;51.818;8.484;2024-01-15T00:15:10;11.10;;;6.27;;
4563;SDS011;2294;51.818;8.484;2024-01-15T00:17:38;18.57;;;8.60;;
4563;SDS011;2294;51.818;8.484;2024-01-15T00:20:06;19.57;;;8.30;;
4563;SDS011;2294;51.818;8.484;2024-01-15T00:22:33;14.80;;;6.53;;
4563;SDS011;2294;51.818;8.484;2024-01-15T00:25:01;20.20;;;9.87;;
4563;SDS011;2294;51.818;8.484;2024-01-15T00:27:28;14.50;;;6.97;;
4563;SDS011;2294;51.818;8.484;2024-01-15T00:29:55;14.20;;;6.90;;
4563;SDS011;2294;51.818;8.484;2024-01-15T00:32:24;13.87;;;6.70;;
4563;SDS011;2294;51.818;8.484;2024-01-15T00:34:51;16.37;;;7.43;;
4563;SDS011;2294;51.818;8.484;2024-01-15T00:37:18;9.27;;;4.93;;
4563;SDS011;2294;51.818;8.484;2024-01-15T00:39:45;11.20;;;4.80;;
4563;SDS011;2294;51.818;8.484;2024-01-15T00:42:12;8.17;;;4.03;;
4563;SDS011;2294;51.818;8.484;2024-01-15T00:44:39;10.40;;;5.70;;
4563;SDS011;2294;51.818;8.484;2024-01-15T00:47:07;9.70;;;5.43;;
4563;SDS011;2294;51.818;8.484;2024-01-15T00:49:35;9.00;;;4.80;;
4563;SDS011;2294;51.818;8.484;2024-01-15T00:52:02;13.30;;;6.10;;
4563;SDS011;2294;51.818;8.484;2024-01-15T00:54:30;11.50;;;5.50;;
4563;SDS011;2294;51.818;8.484;2024-01-15T00:56:57;14.17;;;6.97;;
4563;SDS011;2294;51.818;8.484;2024-01-15T00:59:24;8.80;;;5.87;;
4563;SDS011;2294;51.818;8.484;2024-01-15T01:01:51;11.93;;;6.43;;
4563;SDS011;2294;51.818;8.484;2024-01-15T01:04:19;8.83;;;5.03;;
4563;SDS011;2294;51.818;8.484;2024-01-15T01:06:47;10.47;;;6.47;;
4563;SDS011;2294;51.818;8.484;2024-01-15T01:09:14;9.80;;;5.23;;
4563;SDS011;2294;51.818;8.484;2024-01-15T01:11:41;12.00;;;6.00;;
4563;SDS011;2294;51.818;8.484;2024-01-15T01:14:08;13.87;;;6.70;;
4563;SDS011;2294;51.818;8.484;2024-01-15T01:16:36;11.60;;;6.57;;
4563;SDS011;2294;51.818;8.484;2024-01-15T01:19:04;17.37;;;6.17;;
4563;SDS011;2294;51.818;8.484;2024-01-15T01:21:32;6.17;;;3.17;;
4563;SDS011;2294;51.818;8.484;2024-01-15T01:24:01;15.20;;;7.37;;
4563;SDS011;2294;51.818;8.484;2024-01-15T01:26:28;4.80;;;3.23;;
4563;SDS011;2294;51.818;8.484;2024-01-15T01:28:55;11.50;;;5.57;;
4563;SDS011;2294;51.818;8.484;2024-01-15T01:31:22;11.63;;;6.93;;
4563;SDS011;2294;51.818;8.484;2024-01-15T01:33:49;9.83;;;4.00;;
4563;SDS011;2294;51.818;8.484;2024-01-15T01:36:17;3.70;;;2.50;;
4563;SDS011;2294;51.818;8.484;2024-01-15T01:38:44;12.80;;;5.40;;
4563;SDS011;2294;51.818;8.484;2024-01-15T01:41:12;12.00;;;5.80;;
4563;SDS011;2294;51.818;8.484;2024-01-15T01:43:40;5.97;;;2.93;;
4563;SDS011;2294;51.818;8.484;2024-01-15T01:46:07;18.70;;;6.37;;
4563;SDS011;2294;51.818;8.484;2024-01-15T01:48:34;14.83;;;6.17;;
4563;SDS011;2294;51.818;8.484;2024-01-15T01:51:02;9.87;;;4.37;;
4563;SDS011;2294;51.818;8.484;2024-01-15T01:53:30;8.33;;;4.63;;
4563;SDS011;2294;51.818;8.484;2024-01-15T01:55:58;12.10;;;6.10;;
4563;SDS011;2294;51.818;8.484;2024-01-15T01:58:27;8.30;;;4.07;;
4563;SDS011;2294;51.818;8.484;2024-01-15T02:00:55;13.33;;;6.57;;
4563;SDS011;2294;51.818;8.484;2024-01-15T02:03:22;17.40;;;6.20;;
4563;SDS011;2294;51.818;8.484;2024-01-15T02:05:49;5.77;;;3.10;;
4563;SDS011;2294;51.818;8.484;2024-01-15T02:08:18;7.40;;;3.90;;
4563;SDS011;2294;51.818;8.484;2024-01-15T02:10:45;14.00;;;5.90;;
4563;SDS011;2294;51.818;8.484;2024-01-15T02:13:12;13.50;;;5.80;;
4563;SDS011;2294;51.818;8.484;2024-01-15T02:15:41;6.07;;;3.10;;
4563;SDS011;2294;51.818;8.484;2024-01-15T02:18:08;13.67;;;6.40;;
4563;SDS011;2294;51.818;8.484;2024-01-15T02:20:35;15.50;;;7.30;;
4563;SDS011;2294;51.818;8.484;2024-01-15T02:23:09;15.70;;;7.43;;
4563;SDS011;2294;51.818;8.484;2024-01-15T02:25:37;15.90;;;5.87;;
4563;SDS011;2294;51.818;8.484;2024-01-15T02:28:04;14.37;;;6.60;;
4563;SDS011;2294;51.818;8.484;2024-01-15T02:30:32;6.13;;;4.00;;
4563;SDS011;2294;51.818;8.484;2024-01-15T02:33:01;6.60;;;4.13;;
4563;SDS011;2294;51.818;8.484;2024-01-15T02:35:28;11.37;;;5.20;;
4563;SDS011;2294;51.818;8.484;2024-01-15T02:37:55;12.80;;;6.30;;
4563;SDS011;2294;51.818;8.484;2024-01-15T02:40:24;13.30;;;6.37;;
4563;SDS011;2294;51.818;8.484;2024-01-15T02:42:51;8.40;;;3.33;;
4563;SDS011;2294;51.818;8.484;2024-01-15T02:45:19;14.37;;;6.93;;
4563;SDS011;2294;51.818;8.484;2024-01-15T02:47:46;6.97;;;4.07;;
4563;SDS011;2294;51.818;8.484;2024-01-15T02:50:13;12.93;;;4.47;;
4563;SDS011;2294;51.818;8.484;2024-01-15T02:52:41;17.00;;;6.30;;
4563;SDS011;2294;51.818;8.484;2024-01-15T02:55:08;6.43;;;3.03;;
4563;SDS011;2294;51.818;8.484;2024-01-15T02:57:37;22.60;;;6.47;;
4563;SDS011;2294;51.818;8.484;2024-01-15T03:00:05;10.63;;;5.63;;
4563;SDS011;2294;51.818;8.484;2024-01-15T03:02:32;14.00;;;6.27;;
4563;SDS011;2294;51.818;8.484;2024-01-15T03:04:59;16.20;;;6.80;;
4563;SDS011;2294;51.818;8.484;2024-01-15T03:07:28;9.70;;;5.73;;
4563;SDS011;2294;51.818;8.484;2024-01-15T03:09:55;9.50;;;5.27;;
4563;SDS011;2294;51.818;8.484;2024-01-15T03:12:22;13.67;;;6.10;;
4563;SDS011;2294;51.818;8.484;2024-01-15T03:14:50;15.13;;;6.97;;
4563;SDS011;2294;51.818;8.484;2024-01-15T03:17:18;12.00;;;5.70;;
4563;SDS011;2294;51.818;8.484;2024-01-15T03:19:45;11.00;;;5.27;;
4563;SDS011;2294;51.818;8.484;2024-01-15T03:22:12;16.67;;;5.67;;
4563;SDS011;2294;51.818;8.484;2024-01-15T03:24:40;11.60;;;5.67;;
4563;SDS011;2294;51.818;8.484;2024-01-15T03:27:07;12.70;;;5.87;;
4563;SDS011;2294;51.818;8.484;2024-01-15T03:29:34;25.40;;;8.50;;
4563;SDS011;2294;51.818;8.484;2024-01-15T03:32:02;15.87;;;7.00;;
4563;SDS011;2294;51.818;8.484;2024-01-15T03:34:30;17.33;;;6.97;;
4563;SDS011;2294;51.818;8.484;2024-01-15T03:36:57;5.47;;;3.37;;
4563;SDS011;2294;51.818;8.484;2024-01-15T03:39:24;15.47;;;6.50;;
4563;SDS011;2294;51.818;8.484;2024-01-15T03:41:51;23.60;;;6.73;;
4563;SDS011;2294;51.818;8.484;2024-01-15T03:44:18;13.07;;;5.87;;
4563;SDS011;2294;51.818;8.484;2024-01-15T03:46:46;12.93;;;3.10;;
4563;SDS011;2294;51.818;8.484;2024-01-15T03:49:14;9.30;;;4.07;;
4563;SDS011;2294;51.818;8.484;2024-01-15T03:51:41;6.00;;;3.87;;
4563;SDS011;2294;51.818;8.484;2024-01-15T03:54:08;16.93;;;5.57;;
4563;SDS011;2294;51.818;8.484;2024-01-15T03:56:35;18.93;;;5.13;;
4563;SDS011;2294;51.818;8.484;2024-01-15T03:59:03;12.07;;;5.63;;
4563;SDS011;2294;51.818;8.484;2024-01-15T04:01:30;17.80;;;6.00;;
4563;SDS011;2294;51.818;8.484;2024-01-15T04:03:57;13.33;;;5.23;;
4563;SDS011;2294;51.818;8.484;2024-01-15T04:06:25;11.50;;;5.13;;
4563;SDS011;2294;51.818;8.484;2024-01-15T04:08:52;15.63;;;5.57;;
4563;SDS011;2294;51.818;8.484;2024-01-15T04:11:20;3.17;;;1.60;;
4563;SDS011;2294;51.818;8.484;2024-01-15T04:13:47;23.47;;;7.47;;
4563;SDS011;2294;51.818;8.484;2024-01-15T04:16:14;7.30;;;4.40;;
4563;SDS011;2294;51.818;8.484;2024-01-15T04:18:41;15.10;;;6.80;;
4563;SDS011;2294;51.818;8.484;2024-01-15T04:21:08;14.17;;;5.40;;
4563;SDS011;2294;51.818;8.484;2024-01-15T04:23:37;18.90;;;7.53;;
4563;SDS011;2294;51.818;8.484;2024-01-15T04:26:05;22.73;;;7.90;;
4563;SDS011;2294;51.818;8.484;2024-01-15T04:28:32;12.97;;;4.50;;
4563;SDS011;2294;51.818;8.484;2024-01-15T04:31:00;7.40;;;2.93;;
4563;SDS011;2294;51.818;8.484;2024-01-15T04:33:27;12.40;;;5.60;;
4563;SDS011;2294;51.818;8.484;2024-01-15T04:35:54;10.77;;;5.80;;
4563;SDS011;2294;51.818;8.484;2024-01-15T04:38:21;11.30;;;5.97;;
4563;SDS011;2294;51.818;8.484;2024-01-15T04:40:49;22.13;;;7.13;;
4563;SDS011;2294;51.818;8.484;2024-01-15T04:43:16;13.13;;;4.93;;
4563;SDS011;2294;51.818;8.484;2024-01-15T04:45:44;7.30;;;4.40;;
4563;SDS011;2294;51.818;8.484;2024-01-15T04:48:11;18.73;;;5.57;;
4563;SDS011;2294;51.818;8.484;2024-01-15T04:50:38;8.70;;;4.60;;
4563;SDS011;2294;51.818;8.484;2024-01-15T04:53:05;16.17;;;4.60;;
4563;SDS011;2294;51.818;8.484;2024-01-15T04:55:32;11.43;;;5.33;;
4563;SDS011;2294;51.818;8.484;2024-01-15T04:58:01;7.87;;;3.80;;
4563;SDS011;2294;51.818;8.484;2024-01-15T05:00:28;14.30;;;6.50;;
4563;SDS011;2294;51.818;8.484;2024-01-15T05:02:55;19.23;;;8.03;;
4563;SDS011;2294;51.818;8.484;2024-01-15T05:07:55;12.57;;;5.80;;
4563;SDS011;2294;51.818;8.484;2024-01-15T05:10:22;18.93;;;6.07;;
4563;SDS011;2294;51.818;8.484;2024-01-15T05:12:49;6.70;;;2.70;;
4563;SDS011;2294;51.818;8.484;2024-01-15T05:15:17;8.23;;;5.17;;
4563;SDS011;2294;51.818;8.484;2024-01-15T05:17:45;20.53;;;6.17;;
4563;SDS011;2294;51.818;8.484;2024-01-15T05:20:12;12.77;;;5.07;;
4563;SDS011;2294;51.818;8.484;2024-01-15T05:22:39;5.80;;;2.57;;
4563;SDS011;2294;51.818;8.484;2024-01-15T05:25:06;11.20;;;4.53;;
4563;SDS011;2294;51.818;8.484;2024-01-15T05:27:33;14.87;;;7.43;;
4563;SDS011;2294;51.818;8.484;2024-01-15T05:30:00;9.43;;;4.73;;
4563;SDS011;2294;51.818;8.484;2024-01-15T05:32:30;12.13;;;5.30;;
4563;SDS011;2294;51.818;8.484;2024-01-15T05:34:57;6.80;;;3.97;;
4563;SDS011;2294;51.818;8.484;2024-01-15T05:37:24;13.23;;;5.50;;
4563;SDS011;2294;51.818;8.484;2024-01-15T05:39:51;16.73;;;5.37;;
4563;SDS011;2294;51.818;8.484;2024-01-15T05:42:18;18.47;;;5.37;;
4563;SDS011;2294;51.818;8.484;2024-01-15T05:44:45;13.60;;;6.87;;
4563;SDS011;2294;51.818;8.484;2024-01-15T05:47:13;9.80;;;4.10;;
4563;SDS011;2294;51.818;8.484;2024-01-15T05:49:41;13.00;;;7.23;;
4563;SDS011;2294;51.818;8.484;2024-01-15T05:52:08;12.07;;;5.87;;
4563;SDS011;2294;51.818;8.484;2024-01-15T05:54:35;13.83;;;7.20;;
4563;SDS011;2294;51.818;8.484;2024-01-15T05:57:03;20.77;;;9.17;;
4563;SDS011;2294;51.818;8.484;2024-01-15T05:59:30;15.90;;;5.87;;
4563;SDS011;2294;51.818;8.484;2024-01-15T06:01:59;9.17;;;4.30;;
4563;SDS011;2294;51.818;8.484;2024-01-15T06:04:26;10.97;;;5.63;;
4563;SDS011;2294;51.818;8.484;2024-01-15T06:06:54;9.50;;;5.10;;
4563;SDS011;2294;51.818;8.484;2024-01-15T06:09:22;13.50;;;6.27;;
4563;SDS011;2294;51.818;8.484;2024-01-15T06:11:49;10.60;;;4.80;;
4563;SDS011;2294;51.818;8.484;2024-01-15T06:14:16;15.97;;;6.17;;
4563;SDS011;2294;51.818;8.484;2024-01-15T06:16:43;16.47;;;6.73;;
4563;SDS011;2294;51.818;8.484;2024-01-15T06:19:11;13.50;;;7.20;;
4563;SDS011;2294;51.818;8.484;2024-01-15T06:21:38;13.83;;;7.00;;
4563;SDS011;2294;51.818;8.484;2024-01-15T06:24:06;13.27;;;5.53;;
4563;SDS011;2294;51.818;8.484;2024-01-15T06:26:35;18.83;;;7.73;;
4563;SDS011;2294;51.818;8.484;2024-01-15T06:29:02;12.70;;;7.23;;
4563;SDS011;2294;51.818;8.484;2024-01-15T06:31:29;17.67;;;7.87;;
4563;SDS011;2294;51.818;8.484;2024-01-15T06:33:56;14.97;;;7.67;;
4563;SDS011;2294;51.818;8.484;2024-01-15T06:36:23;16.30;;;8.20;;
4563;SDS011;2294;51.818;8.484;2024-01-15T06:38:50;11.17;;;5.00;;
4563;SDS011;2294;51.818;8.484;2024-01-15T06:41:19;17.00;;;8.07;;
4563;SDS011;2294;51.818;8.484;2024-01-15T06:43:46;20.80;;;10.50;;
4563;SDS011;2294;51.818;8.484;2024-01-15T06:46:14;17.73;;;7.63;;
4563;SDS011;2294;51.818;8.484;2024-01-15T06:48:46;14.13;;;7.00;;
4563;SDS011;2294;51.818;8.484;2024-01-15T06:51:13;5.23;;;3.40;;
4563;SDS011;2294;51.818;8.484;2024-01-15T06:53:40;22.07;;;5.20;;
4563;SDS011;2294;51.818;8.484;2024-01-15T06:56:07;19.63;;;3.77;;
4563;SDS011;2294;51.818;8.484;2024-01-15T06:58:36;7.07;;;3.87;;
4563;SDS011;2294;51.818;8.484;2024-01-15T07:01:03;7.80;;;3.57;;
4563;SDS011;2294;51.818;8.484;2024-01-15T07:03:31;10.67;;;5.23;;
4563;SDS011;2294;51.818;8.484;2024-01-15T07:05:58;6.13;;;4.13;;
4563;SDS011;2294;51.818;8.484;2024-01-15T07:08:25;9.53;;;4.67;;
4563;SDS011;2294;51.818;8.484;2024-01-15T07:10:52;18.70;;;4.40;;
4563;SDS011;2294;51.818;8.484;2024-01-15T07:13:19;7.80;;;4.77;;
4563;SDS011;2294;51.818;8.484;2024-01-15T07:15:48;3.60;;;3.10;;
4563;SDS011;2294;51.818;8.484;2024-01-15T07:18:15;11.30;;;3.77;;
4563;SDS011;2294;51.818;8.484;2024-01-15T07:20:42;9.30;;;3.60;;
4563;SDS011;2294;51.818;8.484;2024-01-15T07:23:10;1.87;;;1.47;;
4563;SDS011;2294;51.818;8.484;2024-01-15T07:25:37;8.77;;;4.37;;
4563;SDS011;2294;51.818;8.484;2024-01-15T07:28:04;6.80;;;4.20;;
4563;SDS011;2294;51.818;8.484;2024-01-15T07:30:32;9.50;;;3.40;;
4563;SDS011;2294;51.818;8.484;2024-01-15T07:33:00;8.40;;;3.00;;
4563;SDS011;2294;51.818;8.484;2024-01-15T07:35:29;5.80;;;2.63;;
4563;SDS011;2294;51.818;8.484;2024-01-15T07:37:56;16.03;;;4.37;;
4563;SDS011;2294;51.818;8.484;2024-01-15T07:40:23;15.77;;;4.93;;
4563;SDS011;2294;51.818;8.484;2024-01-15T07:42:50;3.10;;;2.27;;
4563;SDS011;2294;51.818;8.484;2024-01-15T07:45:18;9.20;;;2.77;;
4563;SDS011;2294;51.818;8.484;2024-01-15T07:47:45;7.77;;;4.00;;
4563;SDS011;2294;51.818;8.484;2024-01-15T07:50:15;6.33;;;3.37;;
4563;SDS011;2294;51.818;8.484;2024-01-15T07:52:42;5.73;;;3.43;;
4563;SDS011;2294;51.818;8.484;2024-01-15T07:55:09;7.50;;;4.17;;
4563;SDS011;2294;51.818;8.484;2024-01-15T07:57:37;8.20;;;4.17;;
4563;SDS011;2294;51.818;8.484;2024-01-15T08:00:04;5.00;;;3.23;;
4563;SDS011;2294;51.818;8.484;2024-01-15T08:02:31;9.63;;;4.50;;
4563;SDS011;2294;51.818;8.484;2024-01-15T08:04:59;2.70;;;1.97;;
4563;SDS011;2294;51.818;8.484;2024-01-15T08:07:27;12.33;;;4.57;;
4563;SDS011;2294;51.818;8.484;2024-01-15T08:09:55;10.10;;;4.27;;
4563;SDS011;2294;51.818;8.484;2024-01-15T08:12:23;7.80;;;4.20;;
4563;SDS011;2294;51.818;8.484;2024-01-15T08:14:50;8.00;;;4.43;;
4563;SDS011;2294;51.818;8.484;2024-01-15T08:17:17;10.83;;;4.00;;
4563;SDS011;2294;51.818;8.484;2024-01-15T08:19:44;3.63;;;2.20;;
4563;SDS011;2294;51.818;8.484;2024-01-15T08:22:12;6.70;;;4.00;;
4563;SDS011;2294;51.818;8.484;2024-01-15T08:24:40;7.07;;;4.60;;
4563;SDS011;2294;51.818;8.484;2024-01-15T08:27:07;7.53;;;3.57;;
4563;SDS011;2294;51.818;8.484;2024-01-15T08:29:34;7.53;;;4.50;;
4563;SDS011;2294;51.818;8.484;2024-01-15T08:32:02;5.47;;;3.33;;
4563;SDS011;2294;51.818;8.484;2024-01-15T08:34:29;5.97;;;4.20;;
4563;SDS011;2294;51.818;8.484;2024-01-15T08:36:56;15.70;;;5.50;;
4563;SDS011;2294;51.818;8.484;2024-01-15T08:39:23;9.23;;;4.67;;
4563;SDS011;2294;51.818;8.484;2024-01-15T08:41:52;7.63;;;4.83;;
4563;SDS011;2294;51.818;8.484;2024-01-15T08:44:19;6.10;;;3.93;;
4563;SDS011;2294;51.818;8.484;2024-01-15T08:46:46;8.90;;;5.20;;
4563;SDS011;2294;51.818;8.484;2024-01-15T08:49:13;9.53;;;4.60;;
4563;SDS011;2294;51.818;8.484;2024-01-15T08:51:40;7.87;;;4.17;;
4563;SDS011;2294;51.818;8.484;2024-01-15T08:54:07;10.77;;;6.33;;
4563;SDS011;2294;51.818;8.484;2024-01-15T08:56:35;6.73;;;4.90;;
4563;SDS011;2294;51.818;8.484;2024-01-15T08:59:03;11.67;;;4.97;;
4563;SDS011;2294;51.818;8.484;2024-01-15T09:01:30;7.40;;;4.73;;
4563;SDS011;2294;51.818;8.484;2024-01-15T09:03:57;8.23;;;5.00;;
4563;SDS011;2294;51.818;8.484;2024-01-15T09:06:25;8.80;;;5.03;;
4563;SDS011;2294;51.818;8.484;2024-01-15T09:08:52;10.80;;;6.17;;
4563;SDS011;2294;51.818;8.484;2024-01-15T09:11:19;11.07;;;5.60;;
4563;SDS011;2294;51.818;8.484;2024-01-15T09:13:46;11.93;;;5.50;;
4563;SDS011;2294;51.818;8.484;2024-01-15T09:16:14;10.90;;;6.00;;
4563;SDS011;2294;51.818;8.484;2024-01-15T09:18:41;10.13;;;5.07;;
4563;SDS011;2294;51.818;8.484;2024-01-15T09:21:09;14.90;;;5.60;;
4563;SDS011;2294;51.818;8.484;2024-01-15T09:23:36;9.07;;;3.87;;
4563;SDS011;2294;51.818;8.484;2024-01-15T09:26:03;6.30;;;4.60;;
4563;SDS011;2294;51.818;8.484;2024-01-15T09:28:30;6.53;;;4.13;;
4563;SDS011;2294;51.818;8.484;2024-01-15T09:30:57;11.60;;;5.03;;
4563;SDS011;2294;51.818;8.484;2024-01-15T09:33:26;10.07;;;5.47;;
4563;SDS011;2294;51.818;8.484;2024-01-15T09:35:53;12.77;;;6.53;;
4563;SDS011;2294;51.818;8.484;2024-01-15T09:38:20;4.77;;;3.13;;
4563;SDS011;2294;51.818;8.484;2024-01-15T09:40:49;9.83;;;5.63;;
4563;SDS011;2294;51.818;8.484;2024-01-15T09:43:16;6.33;;;3.20;;
4563;SDS011;2294;51.818;8.484;2024-01-15T09:45:44;9.10;;;4.30;;
4563;SDS011;2294;51.818;8.484;2024-01-15T09:48:11;6.97;;;3.50;;
4563;SDS011;2294;51.818;8.484;2024-01-15T09:50:39;9.60;;;4.23;;
4563;SDS011;2294;51.818;8.484;2024-01-15T09:53:06;9.07;;;3.53;;
4563;SDS011;2294;51.818;8.484;2024-01-15T09:55:35;2.67;;;2.30;;
4563;SDS011;2294;51.818;8.484;2024-01-15T09:58:02;4.30;;;2.70;;
4563;SDS011;2294;51.818;8.484;2024-01-15T10:00:30;4.30;;;2.10;;
4563;SDS011;2294;51.818;8.484;2024-01-15T10:02:58;4.53;;;3.10;;
4563;SDS011;2294;51.818;8.484;2024-01-15T10:05:26;2.33;;;1.73;;
4563;SDS011;2294;51.818;8.484;2024-01-15T10:07:55;7.20;;;3.70;;
4563;SDS011;2294;51.818;8.484;2024-01-15T10:10:24;3.50;;;2.77;;
4563;SDS011;2294;51.818;8.484;2024-01-15T10:12:51;2.77;;;1.57;;
4563;SDS011;2294;51.818;8.484;2024-01-15T10:15:22;3.93;;;2.50;;
4563;SDS011;2294;51.818;8.484;2024-01-15T10:17:51;4.20;;;2.83;;
4563;SDS011;2294;51.818;8.484;2024-01-15T10:20:18;4.77;;;3.27;;
4563;SDS011;2294;51.818;8.484;2024-01-15T10:22:47;6.30;;;3.10;;
4563;SDS011;2294;51.818;8.484;2024-01-15T10:25:15;4.80;;;3.33;;
4563;SDS011;2294;51.818;8.484;2024-01-15T10:27:52;4.07;;;3.33;;
4563;SDS011;2294;51.818;8.484;2024-01-15T10:30:25;4.57;;;2.97;;
4563;SDS011;2294;51.818;8.484;2024-01-15T10:32:57;2.83;;;2.20;;
4563;SDS011;2294;51.818;8.484;2024-01-15T10:35:26;4.30;;;2.83;;
4563;SDS011;2294;51.818;8.484;2024-01-15T10:37:53;4.37;;;2.10;;
4563;SDS011;2294;51.818;8.484;2024-01-15T10:40:22;4.03;;;2.67;;
4563;SDS011;2294;51.818;8.484;2024-01-15T10:42:49;6.47;;;3.00;;
4563;SDS011;2294;51.818;8.484;2024-01-15T10:45:16;14.30;;;3.77;;
4563;SDS011;2294;51.818;8.484;2024-01-15T10:47:43;3.00;;;1.87;;
4563;SDS011;2294;51.818;8.484;2024-01-15T10:50:11;3.03;;;1.70;;
4563;SDS011;2294;51.818;8.484;2024-01-15T10:52:39;4.13;;;2.60;;
4563;SDS011;2294;51.818;8.484;2024-01-15T10:55:06;6.00;;;3.13;;
4563;SDS011;2294;51.818;8.484;2024-01-15T10:57:36;7.70;;;3.70;;
4563;SDS011;2294;51.818;8.484;2024-01-15T11:00:04;3.40;;;2.10;;
4563;SDS011;2294;51.818;8.484;2024-01-15T11:02:32;6.37;;;3.43;;
4563;SDS011;2294;51.818;8.484;2024-01-15T11:04:59;1.00;;;0.80;;
4563;SDS011;2294;51.818;8.484;2024-01-15T11:07:27;7.40;;;2.93;;
4563;SDS011;2294;51.818;8.484;2024-01-15T11:09:57;2.77;;;2.20;;
4563;SDS011;2294;51.818;8.484;2024-01-15T11:12:25;2.70;;;2.10;;
4563;SDS011;2294;51.818;8.484;2024-01-15T11:15:00;11.13;;;2.80;;
4563;SDS011;2294;51.818;8.484;2024-01-15T11:17:30;5.47;;;2.57;;
4563;SDS011;2294;51.818;8.484;2024-01-15T11:20:16;5.40;;;2.90;;
4563;SDS011;2294;51.818;8.484;2024-01-15T11:22:47;5.90;;;1.93;;
4563;SDS011;2294;51.818;8.484;2024-01-15T11:25:17;3.40;;;1.97;;
4563;SDS011;2294;51.818;8.484;2024-01-15T11:27:45;3.17;;;2.00;;
4563;SDS011;2294;51.818;8.484;2024-01-15T11:30:18;3.40;;;2.50;;
4563;SDS011;2294;51.818;8.484;2024-01-15T11:32:45;3.90;;;2.20;;
4563;SDS011;2294;51.818;8.484;2024-01-15T11:35:13;3.40;;;2.27;;
4563;SDS011;2294;51.818;8.484;2024-01-15T11:37:57;4.97;;;2.30;;
4563;SDS011;2294;51.818;8.484;2024-01-15T11:40:37;4.50;;;2.40;;
4563;SDS011;2294;51.818;8.484;2024-01-15T11:43:07;4.13;;;2.67;;
4563;SDS011;2294;51.818;8.484;2024-01-15T11:45:36;4.80;;;2.33;;
4563;SDS011;2294;51.818;8.484;2024-01-15T11:48:11;3.60;;;2.30;;
4563;SDS011;2294;51.818;8.484;2024-01-15T11:50:39;2.37;;;1.73;;
4563;SDS011;2294;51.818;8.484;2024-01-15T11:53:10;5.77;;;2.53;;
4563;SDS011;2294;51.818;8.484;2024-01-15T11:55:42;3.77;;;1.70;;
4563;SDS011;2294;51.818;8.484;2024-01-15T11:58:11;2.37;;;1.13;;
4563;SDS011;2294;51.818;8.484;2024-01-15T12:00:44;3.17;;;1.53;;
4563;SDS011;2294;51.818;8.484;2024-01-15T12:03:11;8.20;;;2.03;;
4563;SDS011;2294;51.818;8.484;2024-01-15T12:05:39;3.10;;;2.10;;
4563;SDS011;2294;51.818;8.484;2024-01-15T12:08:07;3.83;;;1.77;;
4563;SDS011;2294;51.818;8.484;2024-01-15T12:10:35;4.90;;;2.17;;
4563;SDS011;2294;51.818;8.484;2024-01-15T12:13:04;1.40;;;1.03;;
4563;SDS011;2294;51.818;8.484;2024-01-15T12:15:32;2.97;;;1.50;;
4563;SDS011;2294;51.818;8.484;2024-01-15T12:18:01;3.37;;;1.60;;
4563;SDS011;2294;51.818;8.484;2024-01-15T12:20:29;2.53;;;1.50;;
4563;SDS011;2294;51.818;8.484;2024-01-15T12:22:57;6.97;;;1.87;;
4563;SDS011;2294;51.818;8.484;2024-01-15T12:25:24;1.20;;;0.87;;
4563;SDS011;2294;51.818;8.484;2024-01-15T12:27:52;1.33;;;1.13;;
4563;SDS011;2294;51.818;8.484;2024-01-15T12:30:20;2.83;;;1.80;;
4563;SDS011;2294;51.818;8.484;2024-01-15T12:32:47;1.77;;;1.33;;
4563;SDS011;2294;51.818;8.484;2024-01-15T12:35:16;2.87;;;1.50;;
4563;SDS011;2294;51.818;8.484;2024-01-15T12:37:43;5.67;;;2.57;;
4563;SDS011;2294;51.818;8.484;2024-01-15T12:40:11;2.47;;;1.40;;
4563;SDS011;2294;51.818;8.484;2024-01-15T12:42:39;4.30;;;1.70;;
4563;SDS011;2294;51.818;8.484;2024-01-15T12:45:07;4.60;;;1.67;;
4563;SDS011;2294;51.818;8.484;2024-01-15T12:47:34;3.33;;;1.67;;
4563;SDS011;2294;51.818;8.484;2024-01-15T12:50:06;10.67;;;1.77;;
4563;SDS011;2294;51.818;8.484;2024-01-15T12:52:35;1.80;;;1.33;;
4563;SDS011;2294;51.818;8.484;2024-01-15T12:55:03;1.57;;;1.17;;
4563;SDS011;2294;51.818;8.484;2024-01-15T12:57:33;10.10;;;4.50;;
4563;SDS011;2294;51.818;8.484;2024-01-15T13:00:01;6.80;;;2.43;;
4563;SDS011;2294;51.818;8.484;2024-01-15T13:02:31;13.97;;;2.13;;
4563;SDS011;2294;51.818;8.484;2024-01-15T13:04:59;5.07;;;2.07;;
4563;SDS011;2294;51.818;8.484;2024-01-15T13:07:29;2.60;;;1.37;;
4563;SDS011;2294;51.818;8.484;2024-01-15T13:09:58;2.07;;;1.53;;
4563;SDS011;2294;51.818;8.484;2024-01-15T13:12:26;2.10;;;1.23;;
4563;SDS011;2294;51.818;8.484;2024-01-15T13:14:53;3.33;;;2.13;;
4563;SDS011;2294;51.818;8.484;2024-01-15T13:17:21;5.20;;;2.10;;
4563;SDS011;2294;51.818;8.484;2024-01-15T13:19:48;1.40;;;0.90;;
4563;SDS011;2294;51.818;8.484;2024-01-15T13:22:15;2.77;;;1.87;;
4563;SDS011;2294;51.818;8.484;2024-01-15T13:24:42;12.43;;;2.10;;
4563;SDS011;2294;51.818;8.484;2024-01-15T13:27:11;2.80;;;1.67;;
4563;SDS011;2294;51.818;8.484;2024-01-15T13:29:38;10.80;;;2.70;;
4563;SDS011;2294;51.818;8.484;2024-01-15T13:32:05;3.20;;;2.27;;
4563;SDS011;2294;51.818;8.484;2024-01-15T13:34:32;4.30;;;1.90;;
4563;SDS011;2294;51.818;8.484;2024-01-15T13:37:00;3.13;;;1.67;;
4563;SDS011;2294;51.818;8.484;2024-01-15T13:39:27;13.03;;;3.00;;
4563;SDS011;2294;51.818;8.484;2024-01-15T13:41:58;3.13;;;1.40;;
4563;SDS011;2294;51.818;8.484;2024-01-15T13:44:27;2.50;;;1.70;;
4563;SDS011;2294;51.818;8.484;2024-01-15T13:46:54;5.60;;;1.73;;
4563;SDS011;2294;51.818;8.484;2024-01-15T13:49:22;4.50;;;2.60;;
4563;SDS011;2294;51.818;8.484;2024-01-15T13:51:50;1.23;;;0.90;;
4563;SDS011;2294;51.818;8.484;2024-01-15T13:54:17;2.20;;;1.83;;
4563;SDS011;2294;51.818;8.484;2024-01-15T13:56:45;4.90;;;2.27;;
4563;SDS011;2294;51.818;8.484;2024-01-15T13:59:13;4.10;;;2.80;;
4563;SDS011;2294;51.818;8.484;2024-01-15T14:01:41;7.20;;;2.10;;
4563;SDS011;2294;51.818;8.484;2024-01-15T14:04:09;12.80;;;2.20;;
4563;SDS011;2294;51.818;8.484;2024-01-15T14:06:36;2.20;;;1.50;;
4563;SDS011;2294;51.818;8.484;2024-01-15T14:09:04;7.20;;;3.27;;
4563;SDS011;2294;51.818;8.484;2024-01-15T14:11:34;10.77;;;2.10;;
4563;SDS011;2294;51.818;8.484;2024-01-15T14:14:02;8.63;;;1.50;;
4563;SDS011;2294;51.818;8.484;2024-01-15T14:16:29;2.10;;;1.37;;
4563;SDS011;2294;51.818;8.484;2024-01-15T14:18:57;3.80;;;1.97;;
4563;SDS011;2294;51.818;8.484;2024-01-15T14:21:24;4.00;;;2.13;;
4563;SDS011;2294;51.818;8.484;2024-01-15T14:23:52;7.40;;;2.53;;
4563;SDS011;2294;51.818;8.484;2024-01-15T14:26:19;2.47;;;2.20;;
4563;SDS011;2294;51.818;8.484;2024-01-15T14:28:46;6.57;;;3.10;;
4563;SDS011;2294;51.818;8.484;2024-01-15T14:31:13;2.07;;;0.87;;
4563;SDS011;2294;51.818;8.484;2024-01-15T14:33:40;4.37;;;2.17;;
4563;SDS011;2294;51.818;8.484;2024-01-15T14:36:09;0.90;;;0.70;;
4563;SDS011;2294;51.818;8.484;2024-01-15T14:38:36;1.93;;;1.17;;
4563;SDS011;2294;51.818;8.484;2024-01-15T14:41:04;2.17;;;1.60;;
4563;SDS011;2294;51.818;8.484;2024-01-15T14:43:31;2.77;;;1.67;;
4563;SDS011;2294;51.818;8.484;2024-01-15T14:46:00;2.60;;;1.10;;
4563;SDS011;2294;51.818;8.484;2024-01-15T14:48:27;3.87;;;2.10;;
4563;SDS011;2294;51.818;8.484;2024-01-15T14:50:54;2.37;;;2.00;;
4563;SDS011;2294;51.818;8.484;2024-01-15T14:53:23;2.47;;;1.77;;
4563;SDS011;2294;51.818;8.484;2024-01-15T14:55:50;5.53;;;2.00;;
4563;SDS011;2294;51.818;8.484;2024-01-15T14:58:19;6.17;;;2.00;;
4563;SDS011;2294;51.818;8.484;2024-01-15T15:00:46;4.40;;;1.40;;
4563;SDS011;2294;51.818;8.484;2024-01-15T15:03:14;16.80;;;3.43;;
4563;SDS011;2294;51.818;8.484;2024-01-15T15:05:41;6.03;;;1.60;;
4563;SDS011;2294;51.818;8.484;2024-01-15T15:08:08;5.03;;;2.10;;
4563;SDS011;2294;51.818;8.484;2024-01-15T15:10:38;2.20;;;1.70;;
4563;SDS011;2294;51.818;8.484;2024-01-15T15:13:05;0.90;;;0.80;;
4563;SDS011;2294;51.818;8.484;2024-01-15T15:15:33;5.70;;;2.50;;